createdAt,value
2023-04-19T00:00:44.544Z,96748.69
2023-04-19T00:03:14.529Z,96747.94
2023-04-19T00:05:43.059Z,96751.59
2023-04-19T00:08:12.712Z,96738.47
2023-04-19T00:10:40.942Z,96741.75
2023-04-19T00:13:09.223Z,96742.31
2023-04-19T00:15:38.619Z,96745.03
2023-04-19T00:18:07.273Z,96736.97
2023-04-19T00:20:35.557Z,96731.00
2023-04-19T00:23:03.806Z,96727.28
2023-04-19T00:25:34.847Z,96728.53
2023-04-19T00:28:03.873Z,96721.34
2023-04-19T00:30:32.336Z,96719.72
2023-04-19T00:33:00.589Z,96729.91
2023-04-19T00:35:28.980Z,96717.41
2023-04-19T00:37:57.377Z,96718.25
2023-04-19T00:40:25.686Z,96715.94
2023-04-19T00:42:55.283Z,96713.84
2023-04-19T00:45:23.549Z,96707.34
2023-04-19T00:47:52.118Z,96706.78
2023-04-19T00:50:20.461Z,96702.53
2023-04-19T00:52:48.952Z,96706.69
2023-04-19T00:55:17.347Z,96710.97
2023-04-19T00:57:45.835Z,96701.81
2023-04-19T01:00:16.277Z,96693.72
2023-04-19T01:02:44.610Z,96693.28
2023-04-19T01:05:13.125Z,96686.28
2023-04-19T01:07:41.396Z,96696.53
2023-04-19T01:10:10.053Z,96690.06
2023-04-19T01:12:38.443Z,96692.22
2023-04-19T01:15:08.004Z,96698.25
2023-04-19T01:17:38.683Z,96690.94
2023-04-19T01:20:08.101Z,96680.59
2023-04-19T01:22:38.660Z,96685.84
2023-04-19T01:25:07.186Z,96685.00
2023-04-19T01:27:35.615Z,96677.97
2023-04-19T01:30:03.960Z,96682.63
2023-04-19T01:32:32.292Z,96676.31
2023-04-19T01:35:00.586Z,96668.31
2023-04-19T01:37:28.862Z,96671.66
2023-04-19T01:39:58.538Z,96657.81
2023-04-19T01:42:27.248Z,96660.06
2023-04-19T01:44:55.587Z,96662.78
2023-04-19T01:47:25.092Z,96657.84
2023-04-19T01:49:53.447Z,96658.47
2023-04-19T01:52:21.788Z,96657.44
2023-04-19T01:54:50.075Z,96655.59
2023-04-19T01:57:19.875Z,96652.31
2023-04-19T01:59:50.256Z,96652.72
2023-04-19T02:02:18.724Z,96647.53
2023-04-19T02:04:47.261Z,96648.56
2023-04-19T02:07:15.547Z,96647.13
2023-04-19T02:09:43.811Z,96639.06
2023-04-19T02:12:12.139Z,96642.59
2023-04-19T02:14:42.110Z,96636.41
2023-04-19T02:17:10.346Z,96630.41
2023-04-19T02:19:38.541Z,96631.66
2023-04-19T02:22:06.796Z,96633.94
2023-04-19T02:24:35.256Z,96630.00
2023-04-19T02:27:03.559Z,96628.34
2023-04-19T02:29:31.864Z,96625.06
2023-04-19T02:32:03.949Z,96627.94
2023-04-19T02:34:32.240Z,96624.84
2023-04-19T02:37:00.555Z,96619.69
2023-04-19T02:39:28.920Z,96623.41
2023-04-19T02:41:57.381Z,96620.53
2023-04-19T02:44:25.717Z,96618.47
2023-04-19T02:46:54.429Z,96619.88
2023-04-19T02:49:24.221Z,96617.63
2023-04-19T02:52:03.470Z,96615.56
2023-04-19T02:54:38.334Z,96617.00
2023-04-19T02:57:11.931Z,96604.44
2023-04-19T02:59:46.216Z,96614.91
2023-04-19T03:02:22.278Z,96604.81
2023-04-19T03:04:58.096Z,96603.38
2023-04-19T03:07:31.721Z,96602.16
2023-04-19T03:09:59.992Z,96593.09
2023-04-19T03:12:28.245Z,96597.97
2023-04-19T03:14:56.501Z,96597.91
2023-04-19T03:17:24.807Z,96590.09
2023-04-19T03:19:53.351Z,96589.53
2023-04-19T03:22:23.001Z,96594.63
2023-04-19T03:24:51.272Z,96584.16
2023-04-19T03:27:19.559Z,96589.66
2023-04-19T03:29:48.974Z,96588.06
2023-04-19T03:32:17.393Z,96582.31
2023-04-19T03:34:46.206Z,96584.41
2023-04-19T03:37:14.482Z,96582.97
2023-04-19T03:39:44.115Z,96580.84
2023-04-19T03:42:12.388Z,96576.72
2023-04-19T03:44:40.681Z,96578.97
2023-04-19T03:47:09.030Z,96576.78
2023-04-19T03:49:37.403Z,96573.81
2023-04-19T03:52:06.318Z,96574.53
2023-04-19T03:54:34.606Z,96565.38
2023-04-19T03:57:04.368Z,96565.66
2023-04-19T03:59:32.770Z,96561.47
2023-04-19T04:02:01.240Z,96569.50
2023-04-19T04:04:29.893Z,96566.28
2023-04-19T04:06:58.298Z,96574.22
2023-04-19T04:09:26.567Z,96567.25
2023-04-19T04:11:54.960Z,96566.38
2023-04-19T04:14:25.128Z,96577.59
2023-04-19T04:16:53.444Z,96572.72
2023-04-19T04:19:22.089Z,96567.84
2023-04-19T04:21:50.415Z,96570.50
2023-04-19T04:24:20.205Z,96569.41
2023-04-19T04:26:50.452Z,96573.81
2023-04-19T04:29:19.212Z,96573.44
2023-04-19T04:31:48.859Z,96566.66
2023-04-19T04:34:17.558Z,96562.34
2023-04-19T04:36:47.451Z,96567.31
2023-04-19T04:39:15.776Z,96572.81
2023-04-19T04:41:44.060Z,96578.13
2023-04-19T04:44:22.627Z,96570.91
2023-04-19T04:46:52.334Z,96569.69
2023-04-19T04:49:20.811Z,96569.28
2023-04-19T04:51:49.064Z,96575.88
2023-04-19T04:54:17.543Z,96569.59
2023-04-19T04:56:45.999Z,96565.81
2023-04-19T04:59:14.340Z,96570.59
2023-04-19T05:01:42.801Z,96576.47
2023-04-19T05:04:12.628Z,96575.84
2023-04-19T05:06:41.411Z,96577.03
2023-04-19T05:09:09.719Z,96571.75
2023-04-19T05:11:38.000Z,96574.00
2023-04-19T05:14:06.301Z,96570.56
2023-04-19T05:16:34.784Z,96571.03
2023-04-19T05:19:03.009Z,96574.47
2023-04-19T05:21:34.378Z,96576.78
2023-04-19T05:24:02.974Z,96575.47
2023-04-19T05:26:32.180Z,96568.50
2023-04-19T05:29:00.458Z,96567.34
2023-04-19T05:31:28.856Z,96567.81
2023-04-19T05:33:57.096Z,96563.19
2023-04-19T05:36:25.336Z,96556.50
2023-04-19T05:38:54.956Z,96560.63
2023-04-19T05:41:23.731Z,96564.69
2023-04-19T05:43:52.057Z,96568.16
2023-04-19T05:46:20.349Z,96572.53
2023-04-19T05:48:48.667Z,96561.16
2023-04-19T05:51:18.969Z,96570.50
2023-04-19T05:53:47.235Z,96574.94
2023-04-19T05:56:16.905Z,96566.59
2023-04-19T05:58:45.198Z,96572.34
2023-04-19T06:01:14.005Z,96563.78
2023-04-19T06:03:42.524Z,96571.84
2023-04-19T06:06:10.947Z,96568.19
2023-04-19T06:08:39.311Z,96568.44
2023-04-19T06:11:15.936Z,96563.88
2023-04-19T06:13:54.442Z,96564.47
2023-04-19T06:16:22.994Z,96567.22
2023-04-19T06:18:51.337Z,96560.88
2023-04-19T06:21:19.647Z,96560.09
2023-04-19T06:23:47.912Z,96556.53
2023-04-19T06:26:16.369Z,96556.59
2023-04-19T06:28:44.625Z,96557.41
2023-04-19T06:31:14.315Z,96554.31
2023-04-19T06:33:42.570Z,96550.91
2023-04-19T06:36:11.519Z,96545.91
2023-04-19T06:38:41.376Z,96545.75
2023-04-19T06:41:10.249Z,96550.31
2023-04-19T06:43:39.509Z,96539.00
2023-04-19T06:46:07.960Z,96544.50
2023-04-19T06:48:37.668Z,96543.53
2023-04-19T06:51:06.159Z,96540.94
2023-04-19T06:53:34.742Z,96538.28
2023-04-19T06:56:04.301Z,96533.50
2023-04-19T06:58:34.960Z,96537.06
2023-04-19T07:01:04.785Z,96532.97
2023-04-19T07:03:33.779Z,96531.25
2023-04-19T07:06:03.508Z,96529.00
2023-04-19T07:08:48.269Z,96527.38
2023-04-19T07:11:19.279Z,96529.50
2023-04-19T07:13:48.341Z,96516.25
2023-04-19T07:16:16.689Z,96522.03
2023-04-19T07:18:45.058Z,96517.03
2023-04-19T07:21:14.858Z,96514.81
2023-04-19T07:23:43.182Z,96513.81
2023-04-19T07:26:11.596Z,96513.28
2023-04-19T07:28:40.665Z,96516.78
2023-04-19T07:31:08.979Z,96513.63
2023-04-19T07:33:37.192Z,96507.53
2023-04-19T07:36:06.747Z,96518.53
2023-04-19T07:38:36.375Z,96507.97
2023-04-19T07:41:05.394Z,96507.19
2023-04-19T07:43:33.933Z,96504.38
2023-04-19T07:46:02.481Z,96502.03
2023-04-19T07:48:30.836Z,96498.19
2023-04-19T07:50:59.163Z,96506.44
2023-04-19T07:53:27.584Z,96496.28
2023-04-19T07:55:57.213Z,96500.28
2023-04-19T07:58:26.804Z,96501.69
2023-04-19T08:00:55.078Z,96504.72
2023-04-19T08:03:23.622Z,96498.38
2023-04-19T08:05:52.234Z,96489.63
2023-04-19T08:08:20.654Z,96490.31
2023-04-19T08:10:48.996Z,96483.50
2023-04-19T08:13:18.575Z,96488.53
2023-04-19T08:18:18.013Z,96494.78
2023-04-19T08:20:47.213Z,96494.47
2023-04-19T08:23:22.707Z,96494.59
2023-04-19T08:25:52.791Z,96484.53
2023-04-19T08:28:22.466Z,96483.22
2023-04-19T08:30:50.871Z,96476.09
2023-04-19T08:33:19.185Z,96479.88
2023-04-19T08:35:47.410Z,96479.16
2023-04-19T08:38:15.702Z,96480.41
2023-04-19T08:40:47.663Z,96477.41
2023-04-19T08:43:16.646Z,96476.44
2023-04-19T08:45:47.607Z,96470.06
2023-04-19T08:48:16.851Z,96477.06
2023-04-19T08:51:00.659Z,96469.06
2023-04-19T08:53:34.832Z,96472.66
2023-04-19T08:58:46.677Z,96473.22
2023-04-19T09:01:34.970Z,96472.00
2023-04-19T09:04:26.365Z,96476.41
2023-04-19T09:06:54.108Z,96471.72
2023-04-19T09:09:36.642Z,96459.31
2023-04-19T09:12:17.600Z,96454.56
2023-04-19T09:14:59.767Z,96454.63
2023-04-19T09:17:31.179Z,96458.41
2023-04-19T09:19:59.987Z,96465.00
2023-04-19T09:22:28.328Z,96451.84
2023-04-19T09:27:30.027Z,96455.88
2023-04-19T09:29:59.706Z,96442.94
2023-04-19T09:33:00.352Z,96439.00
2023-04-19T09:35:31.679Z,96432.63
2023-04-19T09:38:06.372Z,96443.03
2023-04-19T09:40:35.669Z,96436.22
2023-04-19T09:43:17.897Z,96425.56
2023-04-19T09:45:52.757Z,96428.78
2023-04-19T09:48:24.346Z,96423.91
2023-04-19T09:50:59.600Z,96426.38
2023-04-19T09:53:34.301Z,96426.19
2023-04-19T09:56:03.900Z,96418.91
2023-04-19T10:01:14.386Z,96419.78
2023-04-19T10:03:46.360Z,96417.84
2023-04-19T10:06:35.974Z,96412.31
2023-04-19T10:09:06.344Z,96408.78
2023-04-19T10:11:38.789Z,96407.53
2023-04-19T10:14:09.170Z,96402.50
2023-04-19T10:16:38.734Z,96400.56
2023-04-19T10:19:10.537Z,96403.41
2023-04-19T10:21:39.113Z,96404.34
2023-04-19T10:24:08.294Z,96398.47
2023-04-19T10:27:07.844Z,96399.84
2023-04-19T10:29:58.266Z,96390.81
2023-04-19T10:32:28.753Z,96409.16
2023-04-19T10:34:58.220Z,96391.69
2023-04-19T10:37:27.367Z,96399.63
2023-04-19T10:39:56.145Z,96397.06
2023-04-19T10:42:24.396Z,96396.38
2023-04-19T10:45:34.814Z,96400.16
2023-04-19T10:48:04.489Z,96390.81
2023-04-19T10:50:58.724Z,96389.91
2023-04-19T10:54:00.479Z,96385.03
2023-04-19T10:57:00.584Z,96378.31
2023-04-19T10:59:31.127Z,96387.47
2023-04-19T11:02:01.082Z,96376.31
2023-04-19T11:05:04.242Z,96370.06
2023-04-19T11:07:41.867Z,96371.94
2023-04-19T11:10:11.803Z,96371.94
2023-04-19T11:12:44.228Z,96368.44
2023-04-19T11:15:12.962Z,96366.75
2023-04-19T11:17:42.589Z,96365.56
2023-04-19T11:20:12.728Z,96364.31
2023-04-19T11:22:43.465Z,96354.88
2023-04-19T11:25:13.477Z,96359.69
2023-04-19T11:27:43.019Z,96355.53
2023-04-19T11:30:12.976Z,96358.28
2023-04-19T11:32:47.080Z,96365.47
2023-04-19T11:35:16.227Z,96370.94
2023-04-19T11:37:46.314Z,96357.69
2023-04-19T11:40:16.172Z,96353.88
2023-04-19T11:42:44.506Z,96356.84
2023-04-19T11:45:25.804Z,96357.81
2023-04-19T11:47:57.881Z,96350.00
2023-04-19T11:50:37.132Z,96354.19
2023-04-19T11:53:15.514Z,96352.94
2023-04-19T11:55:45.420Z,96341.94
2023-04-19T11:58:29.608Z,96338.50
2023-04-19T12:01:00.862Z,96339.63
2023-04-19T12:03:29.546Z,96348.56
2023-04-19T12:05:58.953Z,96334.22
2023-04-19T12:08:36.606Z,96342.22
2023-04-19T12:11:06.361Z,96339.00
2023-04-19T12:13:36.421Z,96336.53
2023-04-19T12:16:05.181Z,96341.03
2023-04-19T12:18:48.755Z,96334.88
2023-04-19T12:21:27.376Z,96331.38
2023-04-19T12:23:58.341Z,96327.00
2023-04-19T12:26:28.235Z,96328.88
2023-04-19T12:28:56.853Z,96324.78
2023-04-19T12:31:25.369Z,96328.91
2023-04-19T12:33:53.805Z,96322.09
2023-04-19T12:36:22.339Z,96321.44
2023-04-19T12:38:50.673Z,96323.50
2023-04-19T12:41:21.146Z,96314.88
2023-04-19T12:46:35.299Z,96311.63
2023-04-19T12:49:03.587Z,96310.81
2023-04-19T12:51:32.848Z,96307.72
2023-04-19T12:54:02.478Z,96306.69
2023-04-19T12:56:32.140Z,96305.22
2023-04-19T12:59:00.379Z,96306.44
2023-04-19T13:01:28.817Z,96306.63
2023-04-19T13:03:59.354Z,96309.88
2023-04-19T13:06:28.236Z,96310.00
2023-04-19T13:09:00.377Z,96307.47
2023-04-19T13:11:29.674Z,96310.56
2023-04-19T13:13:59.307Z,96301.88
2023-04-19T13:16:27.756Z,96309.38
2023-04-19T13:18:56.068Z,96310.31
2023-04-19T13:21:24.588Z,96318.31
2023-04-19T13:23:53.313Z,96323.63
2023-04-19T13:26:21.685Z,96319.69
2023-04-19T13:28:50.112Z,96309.13
2023-04-19T13:31:19.879Z,96310.78
2023-04-19T13:33:48.202Z,96314.72
2023-04-19T13:36:16.529Z,96313.28
2023-04-19T13:38:45.030Z,96313.97
2023-04-19T13:41:13.420Z,96317.47
2023-04-19T13:43:41.767Z,96318.94
2023-04-19T13:46:10.193Z,96315.84
2023-04-19T13:48:39.795Z,96312.81
2023-04-19T13:51:08.511Z,96323.47
2023-04-19T13:53:36.817Z,96321.56
2023-04-19T13:56:09.161Z,96331.63
2023-04-19T13:58:37.505Z,96329.84
2023-04-19T14:01:06.087Z,96332.03
2023-04-19T14:03:34.521Z,96332.16
2023-04-19T14:06:04.651Z,96329.75
2023-04-19T14:08:32.934Z,96335.03
2023-04-19T14:11:01.276Z,96331.09
2023-04-19T14:13:29.582Z,96325.00
2023-04-19T14:15:57.871Z,96332.00
2023-04-19T14:18:26.456Z,96334.47
2023-04-19T14:20:54.847Z,96341.47
2023-04-19T14:23:24.509Z,96345.56
2023-04-19T14:25:52.751Z,96344.19
2023-04-19T14:28:20.976Z,96345.44
2023-04-19T14:30:49.308Z,96353.75
2023-04-19T14:33:17.577Z,96347.16
2023-04-19T14:35:45.925Z,96350.75
2023-04-19T14:38:14.177Z,96345.84
2023-04-19T14:40:43.836Z,96350.47
2023-04-19T14:43:13.270Z,96355.41
2023-04-19T14:45:41.538Z,96347.75
2023-04-19T14:48:09.885Z,96348.72
2023-04-19T14:50:38.348Z,96347.19
2023-04-19T14:53:06.593Z,96335.94
2023-04-19T14:55:34.877Z,96331.38
2023-04-19T14:58:04.595Z,96336.66
2023-04-19T15:00:33.002Z,96335.84
2023-04-19T15:03:02.518Z,96329.59
2023-04-19T15:05:31.163Z,96336.41
2023-04-19T15:07:59.626Z,96338.31
2023-04-19T15:10:27.933Z,96334.47
2023-04-19T15:12:56.264Z,96337.25
2023-04-19T15:15:25.941Z,96335.56
2023-04-19T15:17:54.250Z,96328.75
2023-04-19T15:20:22.556Z,96337.16
2023-04-19T15:22:50.806Z,96335.72
2023-04-19T15:25:19.109Z,96338.66
2023-04-19T15:27:47.343Z,96335.53
2023-04-19T15:30:17.789Z,96341.97
2023-04-19T15:32:47.936Z,96344.34
2023-04-19T15:35:16.176Z,96345.91
2023-04-19T15:37:44.537Z,96347.97
2023-04-19T15:40:14.455Z,96353.56
2023-04-19T15:42:42.666Z,96360.00
2023-04-19T15:45:11.717Z,96357.38
2023-04-19T15:47:40.703Z,96360.94
2023-04-19T15:50:10.615Z,96361.66
2023-04-19T15:52:38.864Z,96360.09
2023-04-19T15:55:07.439Z,96365.09
2023-04-19T15:57:36.621Z,96352.91
2023-04-19T16:00:09.249Z,96354.31
2023-04-19T16:02:37.700Z,96360.22
2023-04-19T16:05:06.861Z,96364.75
2023-04-19T16:07:38.218Z,96360.00
2023-04-19T16:10:08.107Z,96354.22
2023-04-19T16:12:36.489Z,96361.53
2023-04-19T16:15:05.810Z,96358.16
2023-04-19T16:17:34.109Z,96359.78
2023-04-19T16:20:02.396Z,96370.00
2023-04-19T16:22:30.687Z,96361.31
2023-04-19T16:25:00.398Z,96360.47
2023-04-19T16:27:28.656Z,96364.69
2023-04-19T16:29:56.923Z,96360.72
2023-04-19T16:32:25.387Z,96363.38
2023-04-19T16:34:53.773Z,96351.16
2023-04-19T16:37:22.101Z,96345.81
2023-04-19T16:39:50.407Z,96345.06
2023-04-19T16:42:20.023Z,96340.13
2023-04-19T16:44:48.301Z,96341.88
2023-04-19T16:47:16.812Z,96344.75
2023-04-19T16:49:47.291Z,96340.72
2023-04-19T16:52:15.609Z,96328.91
2023-04-19T16:54:44.746Z,96323.06
2023-04-19T16:57:13.067Z,96303.53
2023-04-19T16:59:42.695Z,96316.50
2023-04-19T17:02:11.183Z,96315.97
2023-04-19T17:04:39.847Z,96302.25
2023-04-19T17:07:08.891Z,96302.81
2023-04-19T17:09:37.278Z,96297.75
2023-04-19T17:12:06.461Z,96298.97
2023-04-19T17:14:35.440Z,96301.28
2023-04-19T17:17:05.069Z,96297.66
2023-04-19T17:19:33.337Z,96299.00
2023-04-19T17:22:05.251Z,96308.31
2023-04-19T17:24:34.365Z,96324.38
2023-04-19T17:27:02.802Z,96323.53
2023-04-19T17:29:31.143Z,96320.81
2023-04-19T17:32:00.171Z,96318.91
2023-04-19T17:34:29.774Z,96314.13
2023-04-19T17:36:58.122Z,96319.06
2023-04-19T17:39:27.947Z,96321.13
2023-04-19T17:41:56.368Z,96316.94
2023-04-19T17:44:25.327Z,96316.72
2023-04-19T17:46:53.958Z,96324.31
2023-04-19T17:49:22.330Z,96325.38
2023-04-19T17:51:53.112Z,96327.97
2023-04-19T17:54:21.467Z,96332.22
2023-04-19T17:56:49.939Z,96327.47
2023-04-19T17:59:18.316Z,96326.41
2023-04-19T18:01:46.895Z,96332.66
2023-04-19T18:04:18.024Z,96338.34
2023-04-19T18:06:46.763Z,96331.34
2023-04-19T18:09:17.783Z,96335.50
2023-04-19T18:11:47.672Z,96335.19
2023-04-19T18:14:16.319Z,96337.34
2023-04-19T18:16:44.629Z,96333.59
2023-04-19T18:19:12.928Z,96344.22
2023-04-19T18:21:41.248Z,96355.59
2023-04-19T18:24:09.968Z,96345.38
2023-04-19T18:26:41.376Z,96355.38
2023-04-19T18:29:09.992Z,96353.03
2023-04-19T18:31:38.395Z,96353.44
2023-04-19T18:34:06.645Z,96357.38
2023-04-19T18:36:35.021Z,96354.94
2023-04-19T18:39:03.530Z,96363.44
2023-04-19T18:41:31.804Z,96366.66
2023-04-19T18:46:32.626Z,96362.00
2023-04-19T18:49:01.127Z,96358.25
2023-04-19T18:51:29.437Z,96356.50
2023-04-19T18:53:57.665Z,96355.41
2023-04-19T18:57:04.398Z,96354.88
2023-04-19T18:59:16.019Z,96357.75
2023-04-19T19:01:45.922Z,96371.44
2023-04-19T19:04:37.311Z,96379.34
2023-04-19T19:07:27.390Z,96395.06
2023-04-19T19:09:57.016Z,96386.84
2023-04-19T19:12:25.793Z,96383.56
2023-04-19T19:14:55.746Z,96378.03
2023-04-19T19:17:28.133Z,96375.41
2023-04-19T19:19:56.712Z,96383.41
2023-04-19T19:22:28.325Z,96385.69
2023-04-19T19:24:57.493Z,96384.88
2023-04-19T19:27:25.908Z,96381.81
2023-04-19T19:29:55.670Z,96387.44
2023-04-19T19:32:24.037Z,96377.41
2023-04-19T19:34:56.689Z,96375.84
2023-04-19T19:37:29.084Z,96377.06
2023-04-19T19:39:57.326Z,96378.72
2023-04-19T19:42:25.777Z,96379.16
2023-04-19T19:44:55.912Z,96384.13
2023-04-19T19:47:25.040Z,96386.56
2023-04-19T19:50:43.622Z,96388.97
2023-04-19T19:52:44.733Z,96385.31
2023-04-19T19:55:13.861Z,96384.56
2023-04-19T20:05:21.751Z,96374.03
2023-04-19T20:10:22.417Z,96377.66
2023-04-19T20:12:51.929Z,96369.09
2023-04-19T20:15:22.581Z,96355.09
2023-04-19T20:17:50.740Z,96353.97
2023-04-19T20:20:19.137Z,96355.28
2023-04-19T20:22:47.863Z,96361.19
2023-04-19T20:25:16.590Z,96372.84
2023-04-19T20:27:44.973Z,96378.63
2023-04-19T20:30:14.331Z,96383.66
2023-04-19T20:32:44.109Z,96381.38
2023-04-19T20:35:12.871Z,96381.59
2023-04-19T20:37:41.188Z,96364.28
2023-04-19T20:40:12.085Z,96366.66
2023-04-19T20:42:40.471Z,96361.75
2023-04-19T20:45:10.869Z,96357.06
2023-04-19T20:47:39.447Z,96357.66
2023-04-19T20:50:10.157Z,96369.16
2023-04-19T20:52:38.247Z,96359.22
2023-04-19T20:55:07.334Z,96358.19
2023-04-19T20:57:35.597Z,96351.84
2023-04-19T21:00:04.801Z,96357.63
2023-04-19T21:02:33.222Z,96363.09
2023-04-19T21:05:01.605Z,96361.31
2023-04-19T21:07:31.186Z,96360.50
2023-04-19T21:09:59.423Z,96354.56
2023-04-19T21:12:27.658Z,96350.34
2023-04-19T21:14:55.897Z,96345.41
2023-04-19T21:17:24.187Z,96336.06
2023-04-19T21:19:52.500Z,96339.31
2023-04-19T21:22:20.783Z,96333.94
2023-04-19T21:24:50.392Z,96338.56
2023-04-19T21:27:18.752Z,96330.66
2023-04-19T21:29:47.068Z,96330.72
2023-04-19T21:32:15.370Z,96323.03
2023-04-19T21:34:44.851Z,96327.25
2023-04-19T21:37:13.136Z,96325.00
2023-04-19T21:39:41.369Z,96324.19
2023-04-19T21:42:11.328Z,96318.91
2023-04-19T21:44:39.550Z,96323.47
2023-04-19T21:47:07.798Z,96328.00
2023-04-19T21:49:36.184Z,96325.56
2023-04-19T21:52:04.829Z,96328.56
2023-04-19T21:54:34.267Z,96325.25
2023-04-19T21:57:03.111Z,96319.34
2023-04-19T21:59:35.953Z,96323.63
2023-04-19T22:02:04.761Z,96321.63
2023-04-19T22:04:33.182Z,96315.56
2023-04-19T22:07:02.748Z,96306.09
2023-04-19T22:09:31.548Z,96297.34
2023-04-19T22:12:01.641Z,96302.19
2023-04-19T22:14:30.859Z,96301.78
2023-04-19T22:17:02.664Z,96296.97
2023-04-19T22:19:31.624Z,96298.16
2023-04-19T22:21:59.955Z,96297.84
2023-04-19T22:24:28.229Z,96292.47
2023-04-19T22:26:57.450Z,96302.81
2023-04-19T22:29:26.013Z,96296.47
2023-04-19T22:31:54.303Z,96294.81
2023-04-19T22:34:23.924Z,96294.63
2023-04-19T22:36:52.151Z,96294.63
2023-04-19T22:39:20.755Z,96288.69
2023-04-19T22:41:49.468Z,96288.16
2023-04-19T22:44:17.720Z,96290.59
2023-04-19T22:46:46.069Z,96284.16
2023-04-19T22:49:14.511Z,96281.03
2023-04-19T22:51:45.205Z,96286.00
2023-04-19T22:54:13.325Z,96279.09
2023-04-19T22:56:41.547Z,96278.00
2023-04-19T22:59:09.820Z,96266.81
2023-04-19T23:01:38.128Z,96269.09
2023-04-19T23:04:06.495Z,96263.06
2023-04-19T23:06:36.888Z,96269.38
2023-04-19T23:09:06.610Z,96264.09
2023-04-19T23:11:34.908Z,96270.81
2023-04-19T23:14:03.961Z,96261.69
2023-04-19T23:16:33.371Z,96253.38
2023-04-19T23:19:01.703Z,96248.28
2023-04-19T23:21:30.092Z,96249.84
2023-04-19T23:23:58.519Z,96243.78
2023-04-19T23:26:28.227Z,96245.31
2023-04-19T23:28:56.489Z,96236.81
2023-04-19T23:31:24.827Z,96231.09
2023-04-19T23:33:53.098Z,96229.41
2023-04-19T23:36:21.495Z,96231.09
2023-04-19T23:38:49.742Z,96226.66
2023-04-19T23:41:18.037Z,96217.66
2023-04-19T23:43:47.886Z,96220.19
2023-04-19T23:46:16.290Z,96207.94
2023-04-19T23:48:44.538Z,96210.06
2023-04-19T23:51:13.357Z,96212.31
2023-04-19T23:53:41.684Z,96208.41
2023-04-19T23:56:09.919Z,96211.31
2023-04-19T23:58:38.231Z,96201.09
